Flight Track Log - Related Links

Times and Time Zones

All times are in EST time to prevent confusion due to time zone crossing. See the CPT7773 flight status page for this flight to view local times or setup timezone preferences in your user account.

Time Position Orientation Groundspeed Altitude Reporting Facility
EST Latitude Longitude Course Direction KTS MPH feet Rate Location/Type
Thu 08:06:10 PM 44.5231 -108.9633 109° East 131 151 6,500  Level Salt Lake Center
Thu 08:07:12 PM 44.5119 -108.9186 109° East 123 142 7,100 677 Climbing Salt Lake Center
Thu 08:09:16 PM 44.4897 -108.8125 115° Southeast 137 158 8,600 746 Climbing Salt Lake Center
Thu 08:10:17 PM 44.4797 -108.7528 103° East 147 169 9,400 780 Climbing Salt Lake Center
Thu 08:11:19 PM 44.4522 -108.7039 128° Southeast 153 176 10,200 774 Climbing Salt Lake Center
Thu 08:12:21 PM 44.4167 -108.6483 132° Southeast 159 183 11,000 390 Climbing Salt Lake Center
Thu 08:13:22 PM 44.3822 -108.5972 133° Southeast 166 191 11,000  Level Salt Lake Center
Thu 08:14:24 PM 44.3475 -108.5433 132° Southeast 176 203 11,000 -48 Level Salt Lake Center
Thu 08:15:26 PM 44.3142 -108.4894 131° Southeast 181 208 10,900  Descending Salt Lake Center
Thu 08:16:28 PM 44.2794 -108.4358 132° Southeast 184 212 11,000 48 Climbing Salt Lake Center
Thu 08:17:30 PM 44.2436 -108.3825 133° Southeast 186 214 11,000 -49 Level Salt Lake Center
Thu 08:18:31 PM 44.2006 -108.3161 132° Southeast 190 219 10,900  Descending Salt Lake Center
Thu 08:19:33 PM 44.1656 -108.2603 131° Southeast 191 220 11,000 48 Climbing Salt Lake Center
Thu 08:20:35 PM 44.1300 -108.2067 133° Southeast 191 220 11,000  Level Salt Lake Center
Thu 08:21:37 PM 44.0950 -108.1536 133° Southeast 190 219 11,000  Level Salt Lake Center
Thu 08:22:38 PM 44.0594 -108.0986 132° Southeast 190 219 11,000  Level Salt Lake Center
Thu 08:23:40 PM 44.0225 -108.0431 133° Southeast 192 221 11,000 48 Level Salt Lake Center
Thu 08:24:42 PM 43.9786 -107.9769 133° Southeast 194 223 11,100 48 Climbing Salt Lake Center
Thu 08:25:44 PM 43.9436 -107.9217 131° Southeast 193 222 11,100  Level Salt Lake Center
Thu 08:26:45 PM 43.9142 -107.8600 124° Southeast 191 220 11,100  Level Salt Lake Center
Thu 08:27:47 PM 43.8833 -107.7981 125° Southeast 193 222 11,100  Level Salt Lake Center
Thu 08:28:49 PM 43.8519 -107.7358 125° Southeast 195 224 11,100  Level Salt Lake Center
Thu 08:29:51 PM 43.8203 -107.6750 126° Southeast 196 226 11,100  Level Salt Lake Center
Thu 08:30:53 PM 43.7881 -107.6139 126° Southeast 197 227 11,100  Level Salt Lake Center
Thu 08:31:54 PM 43.7500 -107.5389 125° Southeast 198 228 11,100  Level Salt Lake Center
Thu 08:32:56 PM 43.7183 -107.4781 126° Southeast 197 227 11,100  Level Salt Lake Center
Thu 08:33:58 PM 43.6864 -107.4153 125° Southeast 198 228 11,100  Level Salt Lake Center
Thu 08:35:00 PM 43.6550 -107.3531 125° Southeast 198 228 11,100  Level Salt Lake Center
Thu 08:36:01 PM 43.6228 -107.2906 125° Southeast 199 229 11,100  Level Salt Lake Center
Thu 08:37:03 PM 43.5889 -107.2272 126° Southeast 201 231 11,100  Level Salt Lake Center
Thu 08:38:05 PM 43.5483 -107.1489 126° Southeast 206 237 11,100  Level Salt Lake Center
Thu 08:39:06 PM 43.5144 -107.0836 126° Southeast 208 239 11,100  Level Salt Lake Center
Thu 08:40:08 PM 43.4811 -107.0186 125° Southeast 209 241 11,100  Level Salt Lake Center
Thu 08:41:10 PM 43.4478 -106.9581 127° Southeast 202 232 11,100  Level Salt Lake Center
Thu 08:42:11 PM 43.4119 -106.8889 125° Southeast 208 239 11,100  Level Salt Lake Center
Thu 08:43:13 PM 43.3789 -106.8267 126° Southeast 210 242 11,100  Level Salt Lake Center
Thu 08:44:15 PM 43.3414 -106.7547 126° Southeast 208 239 11,100 -195 Level Salt Lake Center
Thu 08:45:16 PM 43.2956 -106.7106 145° Southeast 210 242 10,700 -488 Descending Salt Lake Center
Thu 08:46:18 PM 43.2319 -106.6761 158° South 218 251 10,100 -532 Descending Salt Lake Center
Thu 08:47:20 PM 43.1831 -106.6411 152° Southeast 214 246 9,600 -486 Descending Salt Lake Center
Thu 08:48:09 PM 43.1414 -106.6103 152° Southeast 213 245 9,200 -649 Descending Denver Center
Thu 08:49:11 PM 43.0847 -106.5692 152° Southeast 211 243 8,400 -629 Descending Denver Center
Thu 08:50:13 PM 43.0381 -106.5303 149° Southeast 208 239 7,900 -581 Descending Denver Center
Thu 08:51:15 PM 42.9858 -106.4878 149° Southeast 203 234 7,200 -581 Descending Denver Center
Thu 08:52:17 PM 42.9447 -106.4569 151° Southeast 190 219 6,700 -484 Descending Denver Center

Login

Don't have an account? Register now (free) for customized features, flight alerts, and more!